sensor_id;sensor_type;location;lat;lon;timestamp;P1;durP1;ratioP1;P2;durP2;ratioP2
8219;SDS011;4151;51.110;7.020;2023-02-04T00:00:46;19.10;;;4.23;;
8219;SDS011;4151;51.110;7.020;2023-02-04T00:03:12;18.53;;;4.07;;
8219;SDS011;4151;51.110;7.020;2023-02-04T00:05:39;23.80;;;3.53;;
8219;SDS011;4151;51.110;7.020;2023-02-04T00:08:04;29.87;;;6.40;;
8219;SDS011;4151;51.110;7.020;2023-02-04T00:10:30;21.97;;;4.23;;
8219;SDS011;4151;51.110;7.020;2023-02-04T00:12:56;26.50;;;4.70;;
8219;SDS011;4151;51.110;7.020;2023-02-04T00:15:22;36.07;;;5.33;;
8219;SDS011;4151;51.110;7.020;2023-02-04T00:17:47;31.17;;;4.30;;
8219;SDS011;4151;51.110;7.020;2023-02-04T00:20:13;18.50;;;4.67;;
8219;SDS011;4151;51.110;7.020;2023-02-04T00:22:39;22.87;;;4.30;;
8219;SDS011;4151;51.110;7.020;2023-02-04T00:25:04;32.17;;;4.40;;
8219;SDS011;4151;51.110;7.020;2023-02-04T00:27:30;23.10;;;4.60;;
8219;SDS011;4151;51.110;7.020;2023-02-04T00:29:56;16.63;;;5.23;;
8219;SDS011;4151;51.110;7.020;2023-02-04T00:32:22;16.53;;;4.77;;
8219;SDS011;4151;51.110;7.020;2023-02-04T00:34:47;29.17;;;4.30;;
8219;SDS011;4151;51.110;7.020;2023-02-04T00:37:13;24.80;;;4.57;;
8219;SDS011;4151;51.110;7.020;2023-02-04T00:39:39;25.07;;;5.23;;
8219;SDS011;4151;51.110;7.020;2023-02-04T00:42:04;18.13;;;4.03;;
8219;SDS011;4151;51.110;7.020;2023-02-04T00:44:30;21.30;;;4.07;;
8219;SDS011;4151;51.110;7.020;2023-02-04T00:46:55;23.87;;;3.90;;
8219;SDS011;4151;51.110;7.020;2023-02-04T00:49:21;32.20;;;4.77;;
8219;SDS011;4151;51.110;7.020;2023-02-04T00:51:47;22.63;;;5.10;;
8219;SDS011;4151;51.110;7.020;2023-02-04T00:54:13;27.60;;;4.90;;
8219;SDS011;4151;51.110;7.020;2023-02-04T00:56:40;23.67;;;4.53;;
8219;SDS011;4151;51.110;7.020;2023-02-04T00:59:06;26.23;;;4.23;;
8219;SDS011;4151;51.110;7.020;2023-02-04T01:01:32;24.83;;;4.07;;
8219;SDS011;4151;51.110;7.020;2023-02-04T01:03:58;19.40;;;4.30;;
8219;SDS011;4151;51.110;7.020;2023-02-04T01:06:24;23.60;;;4.37;;
8219;SDS011;4151;51.110;7.020;2023-02-04T01:08:50;21.23;;;5.30;;
8219;SDS011;4151;51.110;7.020;2023-02-04T01:11:16;26.20;;;3.90;;
8219;SDS011;4151;51.110;7.020;2023-02-04T01:13:41;39.47;;;6.03;;
8219;SDS011;4151;51.110;7.020;2023-02-04T01:16:07;26.00;;;4.00;;
8219;SDS011;4151;51.110;7.020;2023-02-04T01:18:33;21.67;;;3.70;;
8219;SDS011;4151;51.110;7.020;2023-02-04T01:20:58;35.43;;;4.97;;
8219;SDS011;4151;51.110;7.020;2023-02-04T01:23:24;33.87;;;5.13;;
8219;SDS011;4151;51.110;7.020;2023-02-04T01:25:50;22.73;;;3.90;;
8219;SDS011;4151;51.110;7.020;2023-02-04T01:28:15;29.37;;;6.00;;
8219;SDS011;4151;51.110;7.020;2023-02-04T01:30:41;25.13;;;4.87;;
8219;SDS011;4151;51.110;7.020;2023-02-04T01:33:06;30.23;;;4.20;;
8219;SDS011;4151;51.110;7.020;2023-02-04T01:35:32;23.20;;;4.00;;
8219;SDS011;4151;51.110;7.020;2023-02-04T01:37:58;31.43;;;5.10;;
8219;SDS011;4151;51.110;7.020;2023-02-04T01:40:23;35.33;;;4.70;;
8219;SDS011;4151;51.110;7.020;2023-02-04T01:42:49;27.00;;;4.47;;
8219;SDS011;4151;51.110;7.020;2023-02-04T01:45:15;19.77;;;3.30;;
8219;SDS011;4151;51.110;7.020;2023-02-04T01:47:41;24.77;;;4.07;;
8219;SDS011;4151;51.110;7.020;2023-02-04T01:50:09;19.53;;;3.27;;
8219;SDS011;4151;51.110;7.020;2023-02-04T01:52:37;25.87;;;4.10;;
8219;SDS011;4151;51.110;7.020;2023-02-04T01:55:05;33.50;;;4.80;;
8219;SDS011;4151;51.110;7.020;2023-02-04T01:57:43;25.57;;;4.50;;
8219;SDS011;4151;51.110;7.020;2023-02-04T02:00:13;27.33;;;3.77;;
8219;SDS011;4151;51.110;7.020;2023-02-04T02:02:57;27.60;;;4.50;;
8219;SDS011;4151;51.110;7.020;2023-02-04T02:05:24;36.50;;;3.97;;
8219;SDS011;4151;51.110;7.020;2023-02-04T02:07:54;22.40;;;4.77;;
8219;SDS011;4151;51.110;7.020;2023-02-04T02:10:22;22.57;;;3.60;;
8219;SDS011;4151;51.110;7.020;2023-02-04T02:12:48;29.23;;;5.13;;
8219;SDS011;4151;51.110;7.020;2023-02-04T02:15:14;24.40;;;3.90;;
8219;SDS011;4151;51.110;7.020;2023-02-04T02:17:40;41.60;;;5.60;;
8219;SDS011;4151;51.110;7.020;2023-02-04T02:20:07;25.10;;;3.93;;
8219;SDS011;4151;51.110;7.020;2023-02-04T02:22:40;23.90;;;3.67;;
8219;SDS011;4151;51.110;7.020;2023-02-04T02:25:15;25.00;;;4.30;;
8219;SDS011;4151;51.110;7.020;2023-02-04T02:27:40;25.87;;;3.73;;
8219;SDS011;4151;51.110;7.020;2023-02-04T02:30:07;27.30;;;3.87;;
8219;SDS011;4151;51.110;7.020;2023-02-04T02:32:35;33.07;;;4.80;;
8219;SDS011;4151;51.110;7.020;2023-02-04T02:35:01;31.43;;;3.83;;
8219;SDS011;4151;51.110;7.020;2023-02-04T02:37:28;32.03;;;4.03;;
8219;SDS011;4151;51.110;7.020;2023-02-04T02:39:54;23.83;;;4.00;;
8219;SDS011;4151;51.110;7.020;2023-02-04T02:42:19;32.43;;;5.07;;
8219;SDS011;4151;51.110;7.020;2023-02-04T02:44:45;17.40;;;4.90;;
8219;SDS011;4151;51.110;7.020;2023-02-04T02:47:12;35.37;;;5.27;;
8219;SDS011;4151;51.110;7.020;2023-02-04T02:49:40;27.07;;;4.07;;
8219;SDS011;4151;51.110;7.020;2023-02-04T02:52:12;33.40;;;5.60;;
8219;SDS011;4151;51.110;7.020;2023-02-04T02:54:38;32.37;;;5.33;;
8219;SDS011;4151;51.110;7.020;2023-02-04T02:57:11;29.13;;;4.90;;
8219;SDS011;4151;51.110;7.020;2023-02-04T02:59:39;21.73;;;3.40;;
8219;SDS011;4151;51.110;7.020;2023-02-04T03:02:05;27.57;;;4.60;;
8219;SDS011;4151;51.110;7.020;2023-02-04T03:04:34;35.87;;;5.40;;
8219;SDS011;4151;51.110;7.020;2023-02-04T03:07:03;19.10;;;3.73;;
8219;SDS011;4151;51.110;7.020;2023-02-04T03:09:29;32.10;;;4.50;;
8219;SDS011;4151;51.110;7.020;2023-02-04T03:11:55;19.93;;;3.23;;
8219;SDS011;4151;51.110;7.020;2023-02-04T03:14:21;36.43;;;4.93;;
8219;SDS011;4151;51.110;7.020;2023-02-04T03:16:49;29.40;;;4.50;;
8219;SDS011;4151;51.110;7.020;2023-02-04T03:19:15;34.33;;;4.23;;
8219;SDS011;4151;51.110;7.020;2023-02-04T03:21:41;15.77;;;3.57;;
8219;SDS011;4151;51.110;7.020;2023-02-04T03:24:07;45.70;;;4.13;;
8219;SDS011;4151;51.110;7.020;2023-02-04T03:26:33;36.33;;;4.10;;
8219;SDS011;4151;51.110;7.020;2023-02-04T03:28:58;51.83;;;5.53;;
8219;SDS011;4151;51.110;7.020;2023-02-04T03:31:24;29.63;;;4.73;;
8219;SDS011;4151;51.110;7.020;2023-02-04T03:33:50;22.30;;;4.33;;
8219;SDS011;4151;51.110;7.020;2023-02-04T03:36:15;15.80;;;3.80;;
8219;SDS011;4151;51.110;7.020;2023-02-04T03:38:41;28.80;;;4.40;;
8219;SDS011;4151;51.110;7.020;2023-02-04T03:41:06;14.30;;;3.67;;
8219;SDS011;4151;51.110;7.020;2023-02-04T03:43:32;29.37;;;6.13;;
8219;SDS011;4151;51.110;7.020;2023-02-04T03:45:57;34.50;;;5.47;;
8219;SDS011;4151;51.110;7.020;2023-02-04T03:48:23;33.13;;;4.70;;
8219;SDS011;4151;51.110;7.020;2023-02-04T03:50:48;34.20;;;4.57;;
8219;SDS011;4151;51.110;7.020;2023-02-04T03:53:14;31.90;;;4.30;;
8219;SDS011;4151;51.110;7.020;2023-02-04T03:55:39;41.27;;;5.10;;
8219;SDS011;4151;51.110;7.020;2023-02-04T03:58:05;21.27;;;3.50;;
8219;SDS011;4151;51.110;7.020;2023-02-04T04:00:31;31.60;;;4.50;;
8219;SDS011;4151;51.110;7.020;2023-02-04T04:02:57;24.30;;;4.47;;
8219;SDS011;4151;51.110;7.020;2023-02-04T04:05:23;17.43;;;3.70;;
8219;SDS011;4151;51.110;7.020;2023-02-04T04:07:49;24.57;;;4.07;;
8219;SDS011;4151;51.110;7.020;2023-02-04T04:10:15;20.93;;;3.20;;
8219;SDS011;4151;51.110;7.020;2023-02-04T04:12:40;26.80;;;4.17;;
8219;SDS011;4151;51.110;7.020;2023-02-04T04:15:06;21.53;;;4.30;;
8219;SDS011;4151;51.110;7.020;2023-02-04T04:17:32;19.00;;;3.90;;
8219;SDS011;4151;51.110;7.020;2023-02-04T04:19:57;23.47;;;3.73;;
8219;SDS011;4151;51.110;7.020;2023-02-04T04:22:23;26.87;;;3.73;;
8219;SDS011;4151;51.110;7.020;2023-02-04T04:24:48;40.47;;;4.30;;
8219;SDS011;4151;51.110;7.020;2023-02-04T04:27:14;22.43;;;3.93;;
8219;SDS011;4151;51.110;7.020;2023-02-04T04:29:40;15.90;;;4.23;;
8219;SDS011;4151;51.110;7.020;2023-02-04T04:32:05;20.47;;;3.77;;
8219;SDS011;4151;51.110;7.020;2023-02-04T04:34:31;19.60;;;3.53;;
8219;SDS011;4151;51.110;7.020;2023-02-04T04:36:56;34.67;;;4.70;;
8219;SDS011;4151;51.110;7.020;2023-02-04T04:39:22;27.03;;;3.67;;
8219;SDS011;4151;51.110;7.020;2023-02-04T04:41:48;20.93;;;3.90;;
8219;SDS011;4151;51.110;7.020;2023-02-04T04:44:14;25.27;;;6.27;;
8219;SDS011;4151;51.110;7.020;2023-02-04T04:46:39;30.70;;;7.37;;
8219;SDS011;4151;51.110;7.020;2023-02-04T04:49:05;42.70;;;8.23;;
8219;SDS011;4151;51.110;7.020;2023-02-04T04:51:31;35.63;;;6.80;;
8219;SDS011;4151;51.110;7.020;2023-02-04T04:53:57;24.50;;;5.20;;
8219;SDS011;4151;51.110;7.020;2023-02-04T04:56:23;30.50;;;4.67;;
8219;SDS011;4151;51.110;7.020;2023-02-04T04:58:49;15.17;;;4.30;;
8219;SDS011;4151;51.110;7.020;2023-02-04T05:01:14;29.40;;;5.20;;
8219;SDS011;4151;51.110;7.020;2023-02-04T05:03:40;30.93;;;4.67;;
8219;SDS011;4151;51.110;7.020;2023-02-04T05:06:06;20.83;;;3.33;;
8219;SDS011;4151;51.110;7.020;2023-02-04T05:08:33;30.77;;;3.90;;
8219;SDS011;4151;51.110;7.020;2023-02-04T05:10:59;19.80;;;3.90;;
8219;SDS011;4151;51.110;7.020;2023-02-04T05:13:28;27.90;;;3.57;;
8219;SDS011;4151;51.110;7.020;2023-02-04T05:15:54;24.03;;;3.97;;
8219;SDS011;4151;51.110;7.020;2023-02-04T05:18:19;31.80;;;3.80;;
8219;SDS011;4151;51.110;7.020;2023-02-04T05:20:45;24.50;;;4.73;;
8219;SDS011;4151;51.110;7.020;2023-02-04T05:23:11;18.13;;;4.27;;
8219;SDS011;4151;51.110;7.020;2023-02-04T05:25:36;13.90;;;3.43;;
8219;SDS011;4151;51.110;7.020;2023-02-04T05:28:02;28.43;;;4.33;;
8219;SDS011;4151;51.110;7.020;2023-02-04T05:30:28;26.27;;;4.00;;
8219;SDS011;4151;51.110;7.020;2023-02-04T05:32:53;14.63;;;3.20;;
8219;SDS011;4151;51.110;7.020;2023-02-04T05:35:19;25.77;;;4.73;;
8219;SDS011;4151;51.110;7.020;2023-02-04T05:37:44;15.07;;;3.77;;
8219;SDS011;4151;51.110;7.020;2023-02-04T05:40:10;22.80;;;4.30;;
8219;SDS011;4151;51.110;7.020;2023-02-04T05:42:36;16.97;;;4.10;;
8219;SDS011;4151;51.110;7.020;2023-02-04T05:45:02;33.57;;;4.37;;
8219;SDS011;4151;51.110;7.020;2023-02-04T05:47:28;37.27;;;4.73;;
8219;SDS011;4151;51.110;7.020;2023-02-04T05:49:53;28.77;;;4.03;;
8219;SDS011;4151;51.110;7.020;2023-02-04T05:52:19;26.37;;;4.30;;
8219;SDS011;4151;51.110;7.020;2023-02-04T05:54:44;23.77;;;4.80;;
8219;SDS011;4151;51.110;7.020;2023-02-04T05:57:10;35.57;;;4.80;;
8219;SDS011;4151;51.110;7.020;2023-02-04T05:59:35;34.87;;;5.27;;
8219;SDS011;4151;51.110;7.020;2023-02-04T06:02:01;31.50;;;5.17;;
8219;SDS011;4151;51.110;7.020;2023-02-04T06:04:26;19.83;;;4.80;;
8219;SDS011;4151;51.110;7.020;2023-02-04T06:06:52;20.30;;;4.43;;
8219;SDS011;4151;51.110;7.020;2023-02-04T06:09:18;25.27;;;5.00;;
8219;SDS011;4151;51.110;7.020;2023-02-04T06:11:43;16.20;;;4.57;;
8219;SDS011;4151;51.110;7.020;2023-02-04T06:14:09;29.43;;;4.77;;
8219;SDS011;4151;51.110;7.020;2023-02-04T06:16:35;23.57;;;6.37;;
8219;SDS011;4151;51.110;7.020;2023-02-04T06:19:00;33.67;;;5.17;;
8219;SDS011;4151;51.110;7.020;2023-02-04T06:21:26;42.53;;;5.33;;
8219;SDS011;4151;51.110;7.020;2023-02-04T06:23:52;35.73;;;5.97;;
8219;SDS011;4151;51.110;7.020;2023-02-04T06:26:17;15.80;;;5.27;;
8219;SDS011;4151;51.110;7.020;2023-02-04T06:28:43;35.50;;;5.10;;
8219;SDS011;4151;51.110;7.020;2023-02-04T06:31:08;27.00;;;4.87;;
8219;SDS011;4151;51.110;7.020;2023-02-04T06:33:34;24.00;;;5.73;;
8219;SDS011;4151;51.110;7.020;2023-02-04T06:36:01;27.70;;;5.17;;
8219;SDS011;4151;51.110;7.020;2023-02-04T06:38:28;23.33;;;4.97;;
8219;SDS011;4151;51.110;7.020;2023-02-04T06:40:53;29.70;;;5.67;;
8219;SDS011;4151;51.110;7.020;2023-02-04T06:43:19;24.33;;;5.70;;
8219;SDS011;4151;51.110;7.020;2023-02-04T06:45:45;26.07;;;6.57;;
8219;SDS011;4151;51.110;7.020;2023-02-04T06:48:11;31.60;;;5.00;;
8219;SDS011;4151;51.110;7.020;2023-02-04T06:50:36;23.53;;;4.90;;
8219;SDS011;4151;51.110;7.020;2023-02-04T06:53:02;20.33;;;4.43;;
8219;SDS011;4151;51.110;7.020;2023-02-04T06:55:27;27.30;;;5.17;;
8219;SDS011;4151;51.110;7.020;2023-02-04T06:57:53;23.40;;;5.63;;
8219;SDS011;4151;51.110;7.020;2023-02-04T07:00:18;41.33;;;6.27;;
8219;SDS011;4151;51.110;7.020;2023-02-04T07:02:44;26.33;;;5.90;;
8219;SDS011;4151;51.110;7.020;2023-02-04T07:05:10;24.43;;;4.70;;
8219;SDS011;4151;51.110;7.020;2023-02-04T07:07:36;40.77;;;6.80;;
8219;SDS011;4151;51.110;7.020;2023-02-04T07:10:02;30.77;;;5.33;;
8219;SDS011;4151;51.110;7.020;2023-02-04T07:12:28;32.60;;;5.20;;
8219;SDS011;4151;51.110;7.020;2023-02-04T07:14:53;22.00;;;5.33;;
8219;SDS011;4151;51.110;7.020;2023-02-04T07:17:19;27.50;;;5.13;;
8219;SDS011;4151;51.110;7.020;2023-02-04T07:19:44;27.57;;;5.40;;
8219;SDS011;4151;51.110;7.020;2023-02-04T07:22:10;18.70;;;4.37;;
8219;SDS011;4151;51.110;7.020;2023-02-04T07:24:35;24.73;;;5.30;;
8219;SDS011;4151;51.110;7.020;2023-02-04T07:27:01;26.30;;;6.00;;
8219;SDS011;4151;51.110;7.020;2023-02-04T07:29:27;18.40;;;4.40;;
8219;SDS011;4151;51.110;7.020;2023-02-04T07:31:52;41.93;;;6.20;;
8219;SDS011;4151;51.110;7.020;2023-02-04T07:34:18;18.40;;;4.40;;
8219;SDS011;4151;51.110;7.020;2023-02-04T07:36:44;21.17;;;4.60;;
8219;SDS011;4151;51.110;7.020;2023-02-04T07:39:10;16.47;;;4.90;;
8219;SDS011;4151;51.110;7.020;2023-02-04T07:41:35;27.37;;;6.17;;
8219;SDS011;4151;51.110;7.020;2023-02-04T07:44:01;35.40;;;7.07;;
8219;SDS011;4151;51.110;7.020;2023-02-04T07:46:27;42.43;;;7.33;;
8219;SDS011;4151;51.110;7.020;2023-02-04T07:48:53;23.33;;;6.07;;
8219;SDS011;4151;51.110;7.020;2023-02-04T07:51:19;28.53;;;6.10;;
8219;SDS011;4151;51.110;7.020;2023-02-04T07:53:44;32.43;;;6.27;;
8219;SDS011;4151;51.110;7.020;2023-02-04T07:56:10;40.67;;;7.80;;
8219;SDS011;4151;51.110;7.020;2023-02-04T07:58:35;40.43;;;6.83;;
8219;SDS011;4151;51.110;7.020;2023-02-04T08:01:01;30.80;;;6.40;;
8219;SDS011;4151;51.110;7.020;2023-02-04T08:03:27;30.07;;;6.93;;
8219;SDS011;4151;51.110;7.020;2023-02-04T08:05:52;32.20;;;7.13;;
8219;SDS011;4151;51.110;7.020;2023-02-04T08:08:18;33.53;;;6.27;;
8219;SDS011;4151;51.110;7.020;2023-02-04T08:10:44;29.43;;;5.70;;
8219;SDS011;4151;51.110;7.020;2023-02-04T08:13:10;36.63;;;6.70;;
8219;SDS011;4151;51.110;7.020;2023-02-04T08:15:36;35.00;;;6.27;;
8219;SDS011;4151;51.110;7.020;2023-02-04T08:18:02;28.63;;;6.73;;
8219;SDS011;4151;51.110;7.020;2023-02-04T08:20:28;21.70;;;6.50;;
8219;SDS011;4151;51.110;7.020;2023-02-04T08:22:53;42.10;;;6.83;;
8219;SDS011;4151;51.110;7.020;2023-02-04T08:25:19;31.60;;;6.80;;
8219;SDS011;4151;51.110;7.020;2023-02-04T08:27:45;18.93;;;5.77;;
8219;SDS011;4151;51.110;7.020;2023-02-04T08:30:10;31.73;;;5.80;;
8219;SDS011;4151;51.110;7.020;2023-02-04T08:32:37;29.07;;;5.90;;
8219;SDS011;4151;51.110;7.020;2023-02-04T08:35:03;24.13;;;5.17;;
8219;SDS011;4151;51.110;7.020;2023-02-04T08:37:29;34.17;;;7.10;;
8219;SDS011;4151;51.110;7.020;2023-02-04T08:39:55;35.53;;;5.13;;
8219;SDS011;4151;51.110;7.020;2023-02-04T08:42:20;38.20;;;6.40;;
8219;SDS011;4151;51.110;7.020;2023-02-04T08:44:46;56.47;;;8.13;;
8219;SDS011;4151;51.110;7.020;2023-02-04T08:47:11;26.40;;;6.87;;
8219;SDS011;4151;51.110;7.020;2023-02-04T08:49:37;29.37;;;5.53;;
8219;SDS011;4151;51.110;7.020;2023-02-04T08:52:03;35.73;;;6.20;;
8219;SDS011;4151;51.110;7.020;2023-02-04T08:54:30;27.53;;;5.00;;
8219;SDS011;4151;51.110;7.020;2023-02-04T08:56:56;37.23;;;5.60;;
8219;SDS011;4151;51.110;7.020;2023-02-04T08:59:21;40.37;;;6.20;;
8219;SDS011;4151;51.110;7.020;2023-02-04T09:01:48;30.40;;;5.87;;
8219;SDS011;4151;51.110;7.020;2023-02-04T09:04:16;37.10;;;6.60;;
8219;SDS011;4151;51.110;7.020;2023-02-04T09:06:46;45.80;;;7.80;;
8219;SDS011;4151;51.110;7.020;2023-02-04T09:09:12;40.93;;;6.00;;
8219;SDS011;4151;51.110;7.020;2023-02-04T09:11:38;28.20;;;6.20;;
8219;SDS011;4151;51.110;7.020;2023-02-04T09:14:04;36.40;;;6.03;;
8219;SDS011;4151;51.110;7.020;2023-02-04T09:16:29;25.57;;;6.20;;
8219;SDS011;4151;51.110;7.020;2023-02-04T09:18:55;33.53;;;6.27;;
8219;SDS011;4151;51.110;7.020;2023-02-04T09:21:22;27.43;;;5.30;;
8219;SDS011;4151;51.110;7.020;2023-02-04T09:23:48;35.03;;;6.03;;
8219;SDS011;4151;51.110;7.020;2023-02-04T09:26:14;26.03;;;4.97;;
8219;SDS011;4151;51.110;7.020;2023-02-04T09:28:39;25.37;;;6.07;;
8219;SDS011;4151;51.110;7.020;2023-02-04T09:31:05;34.20;;;6.47;;
8219;SDS011;4151;51.110;7.020;2023-02-04T09:33:31;38.77;;;7.37;;
8219;SDS011;4151;51.110;7.020;2023-02-04T09:35:57;35.43;;;6.00;;
8219;SDS011;4151;51.110;7.020;2023-02-04T09:38:23;36.60;;;6.73;;
8219;SDS011;4151;51.110;7.020;2023-02-04T09:40:56;28.83;;;6.60;;
8219;SDS011;4151;51.110;7.020;2023-02-04T09:43:24;25.13;;;6.33;;
8219;SDS011;4151;51.110;7.020;2023-02-04T09:45:55;29.00;;;6.33;;
8219;SDS011;4151;51.110;7.020;2023-02-04T09:48:22;28.27;;;6.90;;
8219;SDS011;4151;51.110;7.020;2023-02-04T09:50:48;43.27;;;8.23;;
8219;SDS011;4151;51.110;7.020;2023-02-04T09:53:19;32.17;;;7.80;;
8219;SDS011;4151;51.110;7.020;2023-02-04T09:55:47;24.67;;;6.77;;
8219;SDS011;4151;51.110;7.020;2023-02-04T09:58:15;38.53;;;7.33;;
8219;SDS011;4151;51.110;7.020;2023-02-04T10:00:42;33.67;;;8.10;;
8219;SDS011;4151;51.110;7.020;2023-02-04T10:03:13;37.23;;;8.50;;
8219;SDS011;4151;51.110;7.020;2023-02-04T10:05:41;44.77;;;8.53;;
8219;SDS011;4151;51.110;7.020;2023-02-04T10:08:08;33.00;;;8.00;;
8219;SDS011;4151;51.110;7.020;2023-02-04T10:10:38;44.83;;;9.73;;
8219;SDS011;4151;51.110;7.020;2023-02-04T10:13:04;42.57;;;12.13;;
8219;SDS011;4151;51.110;7.020;2023-02-04T10:15:32;46.43;;;10.57;;
8219;SDS011;4151;51.110;7.020;2023-02-04T10:18:02;30.87;;;9.70;;
8219;SDS011;4151;51.110;7.020;2023-02-04T10:20:31;39.80;;;10.63;;
8219;SDS011;4151;51.110;7.020;2023-02-04T10:22:57;45.10;;;12.00;;
8219;SDS011;4151;51.110;7.020;2023-02-04T10:25:23;33.97;;;9.50;;
8219;SDS011;4151;51.110;7.020;2023-02-04T10:27:50;34.70;;;10.90;;
8219;SDS011;4151;51.110;7.020;2023-02-04T10:30:27;32.20;;;10.80;;
8219;SDS011;4151;51.110;7.020;2023-02-04T10:32:59;44.40;;;10.70;;
8219;SDS011;4151;51.110;7.020;2023-02-04T10:35:42;34.83;;;9.73;;
8219;SDS011;4151;51.110;7.020;2023-02-04T10:38:10;32.57;;;9.47;;
8219;SDS011;4151;51.110;7.020;2023-02-04T10:40:35;36.90;;;11.40;;
8219;SDS011;4151;51.110;7.020;2023-02-04T10:45:34;32.43;;;9.93;;
8219;SDS011;4151;51.110;7.020;2023-02-04T10:48:00;36.47;;;10.10;;
8219;SDS011;4151;51.110;7.020;2023-02-04T10:50:26;31.60;;;10.37;;
8219;SDS011;4151;51.110;7.020;2023-02-04T10:52:55;30.30;;;10.67;;
8219;SDS011;4151;51.110;7.020;2023-02-04T10:55:41;34.07;;;10.27;;
8219;SDS011;4151;51.110;7.020;2023-02-04T10:58:09;33.37;;;10.90;;
8219;SDS011;4151;51.110;7.020;2023-02-04T11:00:37;43.97;;;11.50;;
8219;SDS011;4151;51.110;7.020;2023-02-04T11:03:16;49.10;;;12.10;;
8219;SDS011;4151;51.110;7.020;2023-02-04T11:05:48;34.80;;;10.60;;
8219;SDS011;4151;51.110;7.020;2023-02-04T11:08:22;46.33;;;12.27;;
8219;SDS011;4151;51.110;7.020;2023-02-04T11:10:59;68.13;;;12.03;;
8219;SDS011;4151;51.110;7.020;2023-02-04T11:26:45;47.03;;;12.20;;
8219;SDS011;4151;51.110;7.020;2023-02-04T11:45:59;39.80;;;12.20;;
8219;SDS011;4151;51.110;7.020;2023-02-04T11:48:34;34.20;;;12.03;;
8219;SDS011;4151;51.110;7.020;2023-02-04T11:51:01;48.87;;;13.03;;
8219;SDS011;4151;51.110;7.020;2023-02-04T11:53:31;46.70;;;12.47;;
8219;SDS011;4151;51.110;7.020;2023-02-04T11:55:57;32.07;;;12.37;;
8219;SDS011;4151;51.110;7.020;2023-02-04T11:58:23;47.73;;;12.93;;
8219;SDS011;4151;51.110;7.020;2023-02-04T12:00:50;38.67;;;12.00;;
8219;SDS011;4151;51.110;7.020;2023-02-04T12:03:21;36.97;;;12.30;;
8219;SDS011;4151;51.110;7.020;2023-02-04T12:05:50;43.87;;;13.77;;
8219;SDS011;4151;51.110;7.020;2023-02-04T12:10:57;46.60;;;12.37;;
8219;SDS011;4151;51.110;7.020;2023-02-04T12:13:24;36.10;;;13.77;;
8219;SDS011;4151;51.110;7.020;2023-02-04T12:15:58;37.03;;;13.50;;
8219;SDS011;4151;51.110;7.020;2023-02-04T12:18:31;41.60;;;13.17;;
8219;SDS011;4151;51.110;7.020;2023-02-04T12:20:58;48.60;;;13.33;;
8219;SDS011;4151;51.110;7.020;2023-02-04T12:23:25;40.37;;;11.53;;
8219;SDS011;4151;51.110;7.020;2023-02-04T12:25:51;45.17;;;12.93;;
8219;SDS011;4151;51.110;7.020;2023-02-04T12:28:17;41.67;;;13.17;;
8219;SDS011;4151;51.110;7.020;2023-02-04T12:30:43;42.80;;;13.40;;
8219;SDS011;4151;51.110;7.020;2023-02-04T12:33:09;53.80;;;13.80;;
8219;SDS011;4151;51.110;7.020;2023-02-04T12:35:35;69.73;;;14.07;;
8219;SDS011;4151;51.110;7.020;2023-02-04T12:38:00;50.53;;;13.90;;
8219;SDS011;4151;51.110;7.020;2023-02-04T12:40:26;49.83;;;13.73;;
8219;SDS011;4151;51.110;7.020;2023-02-04T12:42:52;38.77;;;12.30;;
8219;SDS011;4151;51.110;7.020;2023-02-04T12:45:18;38.23;;;13.90;;
8219;SDS011;4151;51.110;7.020;2023-02-04T12:47:44;36.47;;;12.40;;
8219;SDS011;4151;51.110;7.020;2023-02-04T12:50:11;33.13;;;12.03;;
8219;SDS011;4151;51.110;7.020;2023-02-04T12:52:38;41.73;;;14.70;;
8219;SDS011;4151;51.110;7.020;2023-02-04T12:55:05;59.23;;;13.70;;
8219;SDS011;4151;51.110;7.020;2023-02-04T12:57:32;38.20;;;14.60;;
8219;SDS011;4151;51.110;7.020;2023-02-04T12:59:58;52.10;;;14.20;;
8219;SDS011;4151;51.110;7.020;2023-02-04T13:02:25;40.80;;;13.23;;
8219;SDS011;4151;51.110;7.020;2023-02-04T13:04:52;50.47;;;13.50;;
8219;SDS011;4151;51.110;7.020;2023-02-04T13:07:17;31.23;;;13.37;;
8219;SDS011;4151;51.110;7.020;2023-02-04T13:09:43;40.80;;;14.70;;
8219;SDS011;4151;51.110;7.020;2023-02-04T13:12:09;53.40;;;15.90;;
8219;SDS011;4151;51.110;7.020;2023-02-04T13:14:37;42.70;;;13.70;;
8219;SDS011;4151;51.110;7.020;2023-02-04T13:17:04;34.33;;;12.10;;
8219;SDS011;4151;51.110;7.020;2023-02-04T13:19:30;32.23;;;12.70;;
8219;SDS011;4151;51.110;7.020;2023-02-04T13:21:56;40.10;;;12.87;;
8219;SDS011;4151;51.110;7.020;2023-02-04T13:24:22;33.97;;;12.33;;
8219;SDS011;4151;51.110;7.020;2023-02-04T13:26:47;39.67;;;14.03;;
8219;SDS011;4151;51.110;7.020;2023-02-04T13:29:13;42.57;;;14.60;;
8219;SDS011;4151;51.110;7.020;2023-02-04T13:31:38;53.57;;;15.27;;
8219;SDS011;4151;51.110;7.020;2023-02-04T13:34:04;44.90;;;14.50;;
8219;SDS011;4151;51.110;7.020;2023-02-04T13:36:30;49.90;;;13.63;;
8219;SDS011;4151;51.110;7.020;2023-02-04T13:38:55;44.37;;;13.97;;
8219;SDS011;4151;51.110;7.020;2023-02-04T13:41:23;43.00;;;13.47;;
8219;SDS011;4151;51.110;7.020;2023-02-04T13:43:49;29.17;;;11.97;;
8219;SDS011;4151;51.110;7.020;2023-02-04T13:46:15;33.57;;;12.50;;
8219;SDS011;4151;51.110;7.020;2023-02-04T13:48:40;40.63;;;11.83;;
8219;SDS011;4151;51.110;7.020;2023-02-04T13:51:06;43.93;;;12.60;;
8219;SDS011;4151;51.110;7.020;2023-02-04T13:53:31;42.97;;;11.70;;
8219;SDS011;4151;51.110;7.020;2023-02-04T13:55:57;46.13;;;12.97;;
8219;SDS011;4151;51.110;7.020;2023-02-04T13:58:23;32.80;;;12.80;;
8219;SDS011;4151;51.110;7.020;2023-02-04T14:00:48;38.20;;;13.33;;
8219;SDS011;4151;51.110;7.020;2023-02-04T14:03:14;58.30;;;13.90;;
8219;SDS011;4151;51.110;7.020;2023-02-04T14:05:39;30.07;;;12.73;;
8219;SDS011;4151;51.110;7.020;2023-02-04T14:08:05;38.00;;;12.50;;
8219;SDS011;4151;51.110;7.020;2023-02-04T14:10:30;47.67;;;12.63;;
8219;SDS011;4151;51.110;7.020;2023-02-04T14:12:56;54.97;;;12.53;;
8219;SDS011;4151;51.110;7.020;2023-02-04T14:15:22;39.53;;;12.67;;
8219;SDS011;4151;51.110;7.020;2023-02-04T14:17:48;54.73;;;13.70;;
8219;SDS011;4151;51.110;7.020;2023-02-04T14:20:14;40.60;;;13.47;;
8219;SDS011;4151;51.110;7.020;2023-02-04T14:22:40;55.20;;;13.20;;
8219;SDS011;4151;51.110;7.020;2023-02-04T14:25:05;36.87;;;12.63;;
8219;SDS011;4151;51.110;7.020;2023-02-04T14:27:31;43.17;;;12.57;;
8219;SDS011;4151;51.110;7.020;2023-02-04T14:29:59;45.20;;;12.37;;
8219;SDS011;4151;51.110;7.020;2023-02-04T14:32:24;38.23;;;12.07;;
8219;SDS011;4151;51.110;7.020;2023-02-04T14:34:50;28.67;;;10.77;;
8219;SDS011;4151;51.110;7.020;2023-02-04T14:37:15;28.47;;;11.87;;
8219;SDS011;4151;51.110;7.020;2023-02-04T14:39:41;40.43;;;11.33;;
8219;SDS011;4151;51.110;7.020;2023-02-04T14:42:06;40.30;;;11.27;;
8219;SDS011;4151;51.110;7.020;2023-02-04T14:44:32;36.37;;;11.37;;
8219;SDS011;4151;51.110;7.020;2023-02-04T14:46:58;33.23;;;10.27;;
8219;SDS011;4151;51.110;7.020;2023-02-04T14:49:23;37.20;;;12.70;;
8219;SDS011;4151;51.110;7.020;2023-02-04T14:51:49;39.30;;;11.90;;
8219;SDS011;4151;51.110;7.020;2023-02-04T14:54:15;46.63;;;11.37;;
8219;SDS011;4151;51.110;7.020;2023-02-04T14:56:40;42.33;;;11.83;;
8219;SDS011;4151;51.110;7.020;2023-02-04T14:59:06;27.77;;;9.83;;
8219;SDS011;4151;51.110;7.020;2023-02-04T15:01:32;34.27;;;10.10;;
8219;SDS011;4151;51.110;7.020;2023-02-04T15:03:57;25.83;;;10.47;;
8219;SDS011;4151;51.110;7.020;2023-02-04T15:06:23;31.77;;;12.13;;
8219;SDS011;4151;51.110;7.020;2023-02-04T15:08:49;40.33;;;12.30;;
8219;SDS011;4151;51.110;7.020;2023-02-04T15:11:14;35.40;;;10.53;;
8219;SDS011;4151;51.110;7.020;2023-02-04T15:13:40;34.17;;;10.20;;
8219;SDS011;4151;51.110;7.020;2023-02-04T15:16:05;24.20;;;10.80;;
8219;SDS011;4151;51.110;7.020;2023-02-04T15:18:31;31.63;;;10.20;;
8219;SDS011;4151;51.110;7.020;2023-02-04T15:20:56;34.47;;;10.90;;
8219;SDS011;4151;51.110;7.020;2023-02-04T15:23:22;34.23;;;12.93;;
8219;SDS011;4151;51.110;7.020;2023-02-04T15:25:48;38.83;;;14.87;;
8219;SDS011;4151;51.110;7.020;2023-02-04T15:28:15;27.67;;;11.17;;